ADDS TAF Board (Experimental) INFO Settings

IDs: Format: Expanded Condensed

KIAH - Houston/Bush Intl, TX, US

Issued at 2321 UTC 28 Mar 2015
Updated at: 0106 UTC 29 Mar 2015
Time0053Z 29/02Z 29/03Z 29/04Z 29/05Z 29/06Z 29/07Z 29/08Z 29/09Z 29/10Z 29/11Z 29/12Z 29/13Z 29/14Z
Type OBS PRVL PRVL PRVL PRVL PRVL PRVL PRVL PRVL PRVL PRVL PRVL PRVL PRVL
VIS 10 >6 >6 >6 >6 >6 >6 >6 >6 >6 >6 >6 >6 >6
CIG -- -- -- -- -- -- -- -- -- -- -- -- -- --
Cover CLR SKC SKC SKC SKC SKC SKC SKC SKC SKC SKC SKC SKC SKC
FltCat VFR VFR VFR VFR VFR VFR VFR VFR VFR VFR VFR VFR VFR VFR
WX -- -- -- -- -- -- -- -- -- -- -- -- -- --
WDir 190 190 190 190 190 190 190 190 190 190 190 190 190 190
WSpd 6 5 5 5 5 5 5 5 5 5 5 5 5 5
WGst -- -- -- -- -- -- -- -- -- -- -- -- -- --
R08/26
XWnd -6 -5 -5 -5 -5 -5 -5 -5 -5 -5 -5 -5 -5 -5
HWnd -1 -1 -1 -1 -1 -1 -1 -1 -1 -1 -1 -1 -1 -1
R09/27
XWnd -6 -5 -5 -5 -5 -5 -5 -5 -5 -5 -5 -5 -5 -5
HWnd -1 -1 -1 -1 -1 -1 -1 -1 -1 -1 -1 -1 -1 -1
R15/33
XWnd -4 -3 -3 -3 -3 -3 -3 -3 -3 -3 -3 -3 -3 -3
HWnd 5 4 4 4 4 4 4 4 4 4 4 4 4 4

NOTE: TEMPO conditions in [brackets]. Keep in mind TEMPO conditions might be better (lower impact) than prevailing conditions.

Raw TAF
KIAH 282321Z 2900/3006 21011KT P6SM SKC
  FM290200 19005KT P6SM SKC
  FM291700 19015G20KT P6SM SCT025
  FM300200 17009KT P6SM FEW020


Raw METAR
KIAH 290053Z 19006KT 10SM CLR 23/04 A3008 RMK AO2 SLP185 T02330044
KIAH 282353Z 22009G17KT 10SM CLR 26/02 A3006 RMK AO2 SLP179 T02560022 10278 20256 55004
KIAH 282253Z 22011G19KT 10SM CLR 27/04 A3005 RMK AO2 SLP177 T02720044

METAR Board
Radar Display
Forecast Discussion

TAF Board Legend

Potential Impact
Threat None Slight Moderate High
Visibility (sm) ≥5.1 5.1>X≥3 3>X≥1 <1
Ceiling (100 ft) ≥30.1 30.1>X≥10 10>X≥5 <5
Wind Speed (kt) <10 10≤X<20 20≤X<30 ≥30
Wind Gust (kt) <15 15≤X<25 25≤X<35 ≥35
Weather No Wx Reported VCTS,-TS,-FZRA,SN TS,FZRA +TS,+FZRA,+SN